Time;durP1;ratioP1;P1;durP2;ratioP2;P2;SDS_P1;SDS_P2;PMS_P1;PMS_P2;Temp;Humidity;BMP_temperature;BMP_pressure;BME280_temperature;BME280_humidity;BME280_pressure;Samples;Min_cycle;Max_cycle;Signal;HPM_P1;HPM_P2
2023/07/10 00:01:39;;;;;;;9.23;3.97;;;26.90;85.10;;;;;;5076565;28;20082;-63
2023/07/10 00:04:16;;;;;;;14.60;4.13;;;27.30;85.20;;;;;;5093065;28;20079;-62
2023/07/10 00:06:42;;;;;;;8.75;3.65;;;27.10;85.40;;;;;;5089957;28;20040;-62
2023/07/10 00:09:07;;;;;;;8.98;4.43;;;27.10;85.00;;;;;;5073899;28;20510;-61
2023/07/10 00:11:33;;;;;;;8.63;3.92;;;27.00;85.00;;;;;;5085662;28;20048;-63
2023/07/10 00:13:59;;;;;;;12.65;4.75;;;27.00;84.90;;;;;;5076144;28;20381;-62
2023/07/10 00:16:25;;;;;;;11.02;4.68;;;27.00;85.00;;;;;;5093761;28;20462;-60
2023/07/10 00:18:51;;;;;;;8.60;4.45;;;27.10;85.00;;;;;;5093554;28;20096;-61
2023/07/10 00:21:20;;;;;;;8.85;4.30;;;27.10;84.90;;;;;;5094367;28;20047;-62
2023/07/10 00:23:46;;;;;;;10.43;4.30;;;26.90;83.90;;;;;;5075560;28;20051;-62
2023/07/10 00:26:21;;;;;;;10.10;4.22;;;26.80;84.80;;;;;;5094104;28;20036;-61
2023/07/10 00:28:50;;;;;;;9.23;4.28;;;27.00;85.50;;;;;;5093465;28;20457;-62
2023/07/10 00:31:16;;;;;;;9.65;4.55;;;26.80;85.20;;;;;;5075606;28;20048;-66
2023/07/10 00:33:42;;;;;;;9.15;4.03;;;26.90;84.70;;;;;;5093895;28;20067;-63
2023/07/10 00:36:32;;;;;;;11.73;4.40;;;27.00;85.00;;;;;;5092973;28;20055;-69
2023/07/10 00:39:28;;;;;;;10.82;4.93;;;27.20;84.30;;;;;;5092343;28;20513;-62
2023/07/10 00:41:58;;;;;;;11.15;4.65;;;26.80;83.90;;;;;;5079122;28;20044;-65
2023/07/10 00:44:25;;;;;;;9.20;4.38;;;27.10;85.40;;;;;;5092025;28;20051;-61
2023/07/10 00:46:54;;;;;;;11.73;4.72;;;27.00;85.10;;;;;;5073656;28;20379;-61
2023/07/10 00:50:06;;;;;;;9.25;3.63;;;27.10;85.30;;;;;;5091551;28;20090;-68
2023/07/10 00:52:38;;;;;;;9.10;4.00;;;27.00;84.10;;;;;;5056194;28;20048;-63
2023/07/10 00:55:23;;;;;;;9.55;4.38;;;26.90;83.60;;;;;;5092253;28;20112;-64
2023/07/10 00:57:52;;;;;;;8.57;3.90;;;26.90;85.50;;;;;;5070275;28;20049;-65
2023/07/10 01:00:20;;;;;;;8.93;4.10;;;27.00;85.20;;;;;;5074601;28;20048;-61
2023/07/10 01:02:46;;;;;;;8.07;4.25;;;27.20;85.00;;;;;;5090140;28;20065;-63
2023/07/10 01:05:12;;;;;;;11.20;4.30;;;26.90;84.80;;;;;;5074456;28;20048;-66
2023/07/10 01:07:52;;;;;;;7.70;4.10;;;27.00;84.80;;;;;;5092359;28;20047;-62
2023/07/10 01:10:18;;;;;;;10.35;4.43;;;27.00;84.00;;;;;;5091841;28;20052;-61
2023/07/10 01:12:44;;;;;;;11.05;4.30;;;26.90;84.80;;;;;;5092950;28;20093;-61
2023/07/10 01:15:10;;;;;;;10.73;4.40;;;27.10;84.90;;;;;;5075964;28;20050;-64
2023/07/10 01:17:36;;;;;;;9.85;4.35;;;26.80;85.00;;;;;;5074088;28;20547;-61
2023/07/10 01:20:31;;;;;;;8.82;3.95;;;26.90;84.80;;;;;;5074833;28;20044;-64
2023/07/10 01:22:56;;;;;;;10.00;4.50;;;27.10;84.10;;;;;;5078790;28;20093;-62
2023/07/10 01:25:22;;;;;;;9.43;4.25;;;26.90;84.80;;;;;;5071309;28;20044;-60
2023/07/10 01:27:48;;;;;;;10.07;4.85;;;26.80;84.70;;;;;;5072924;28;20040;-66
2023/07/10 01:30:33;;;;;;;12.18;4.55;;;26.90;84.80;;;;;;5071022;28;20119;-64
2023/07/10 01:32:59;;;;;;;9.52;4.40;;;26.70;85.40;;;;;;5055780;28;20131;-67
2023/07/10 01:35:26;;;;;;;9.77;4.03;;;27.00;84.90;;;;;;5057498;28;20124;-61
2023/07/10 01:37:52;;;;;;;8.82;4.25;;;26.90;85.10;;;;;;5074377;28;20123;-63
2023/07/10 01:40:20;;;;;;;9.73;4.13;;;26.90;84.60;;;;;;5092671;28;20143;-62
2023/07/10 01:42:46;;;;;;;9.15;4.72;;;26.90;85.10;;;;;;5074679;28;20047;-62
2023/07/10 01:45:12;;;;;;;9.77;4.28;;;26.70;84.60;;;;;;5092915;28;20044;-64
2023/07/10 01:47:38;;;;;;;10.15;4.35;;;26.80;85.40;;;;;;5074518;28;20044;-60
2023/07/10 01:50:04;;;;;;;8.98;3.90;;;27.00;84.90;;;;;;5059673;28;20512;-61
2023/07/10 01:52:30;;;;;;;9.15;4.22;;;26.80;84.60;;;;;;5071432;28;20040;-67
2023/07/10 01:54:55;;;;;;;9.63;4.60;;;26.90;84.80;;;;;;5086694;28;20051;-67
2023/07/10 01:57:23;;;;;;;9.77;4.50;;;26.60;84.70;;;;;;5091049;28;20038;-67
2023/07/10 01:59:52;;;;;;;10.43;4.57;;;26.70;85.00;;;;;;5091551;28;20055;-67
2023/07/10 02:02:17;;;;;;;10.40;4.55;;;26.70;84.80;;;;;;5091797;28;20463;-63
2023/07/10 02:04:43;;;;;;;10.45;4.88;;;26.70;84.70;;;;;;5091561;28;20115;-61
2023/07/10 02:07:09;;;;;;;8.27;4.47;;;26.70;84.80;;;;;;5066183;28;20044;-68
2023/07/10 02:09:35;;;;;;;8.73;4.75;;;26.80;84.90;;;;;;5089175;28;21003;-60
2023/07/10 02:12:00;;;;;;;9.23;4.72;;;26.80;84.80;;;;;;5091479;28;20040;-63
2023/07/10 02:14:26;;;;;;;8.88;3.97;;;26.90;84.90;;;;;;5091382;28;20051;-61
2023/07/10 02:16:52;;;;;;;10.68;4.93;;;26.80;85.00;;;;;;5091713;28;20137;-62
2023/07/10 02:19:19;;;;;;;9.95;5.03;;;26.80;84.80;;;;;;5091443;28;20508;-61
2023/07/10 02:21:44;;;;;;;9.70;4.85;;;26.80;85.00;;;;;;5091357;28;20044;-60
2023/07/10 02:24:10;;;;;;;10.77;4.88;;;26.90;85.10;;;;;;5075915;28;20057;-64
2023/07/10 02:26:36;;;;;;;9.88;5.00;;;26.70;84.90;;;;;;5084891;28;20393;-64
2023/07/10 02:29:02;;;;;;;12.80;5.03;;;26.70;85.50;;;;;;5091416;28;20048;-68
2023/07/10 02:31:28;;;;;;;11.48;5.28;;;26.80;85.10;;;;;;5073765;28;20435;-62
2023/07/10 02:33:54;;;;;;;12.02;5.40;;;26.30;84.70;;;;;;5092039;28;20044;-63
2023/07/10 02:36:21;;;;;;;9.13;4.88;;;26.80;85.20;;;;;;5091486;28;20165;-61
2023/07/10 02:38:46;;;;;;;10.35;4.25;;;26.80;85.10;;;;;;5092152;28;20139;-60
2023/07/10 02:41:12;;;;;;;11.13;4.70;;;26.70;84.80;;;;;;5077110;28;20151;-64
2023/07/10 02:43:38;;;;;;;11.27;5.20;;;26.80;85.10;;;;;;5094417;28;20500;-65
2023/07/10 02:46:04;;;;;;;10.07;4.53;;;26.60;84.90;;;;;;5094638;28;20073;-61
2023/07/10 02:48:29;;;;;;;9.48;5.13;;;26.80;85.00;;;;;;5096069;28;20503;-66
2023/07/10 02:50:55;;;;;;;10.05;5.75;;;26.60;84.90;;;;;;5094882;28;20473;-63
2023/07/10 02:53:21;;;;;;;10.02;5.13;;;26.70;85.00;;;;;;5094944;28;20052;-61
2023/07/10 02:55:47;;;;;;;7.93;5.50;;;26.80;84.90;;;;;;5094882;28;20056;-66
2023/07/10 02:58:13;;;;;;;9.00;5.43;;;26.90;84.80;;;;;;5064358;28;20464;-61
2023/07/10 03:00:39;;;;;;;8.55;5.15;;;26.80;84.90;;;;;;5093424;28;20047;-62
2023/07/10 03:03:04;;;;;;;9.75;4.82;;;26.60;84.80;;;;;;5094459;28;20044;-62
2023/07/10 03:05:30;;;;;;;8.77;4.93;;;27.10;85.10;;;;;;5083257;28;20044;-60
2023/07/10 03:07:56;;;;;;;8.85;4.85;;;26.60;84.80;;;;;;5072588;28;20101;-62
2023/07/10 03:10:23;;;;;;;10.18;5.32;;;26.60;84.70;;;;;;5091886;28;20143;-60
2023/07/10 03:12:49;;;;;;;9.52;5.43;;;26.50;84.90;;;;;;5093293;28;20517;-63
2023/07/10 03:15:15;;;;;;;9.88;4.88;;;26.80;85.00;;;;;;5079325;28;20083;-62
2023/07/10 03:17:41;;;;;;;10.10;5.20;;;26.70;84.80;;;;;;5084095;28;20047;-61
2023/07/10 03:20:08;;;;;;;10.50;5.15;;;26.60;85.00;;;;;;5087380;28;20048;-62
2023/07/10 03:22:34;;;;;;;10.85;4.93;;;26.70;84.70;;;;;;5085111;28;20105;-67
2023/07/10 03:24:59;;;;;;;8.43;4.93;;;26.80;85.10;;;;;;5094636;28;20044;-67
2023/07/10 03:27:27;;;;;;;9.77;5.63;;;26.70;85.00;;;;;;5094455;28;20093;-62
2023/07/10 03:29:53;;;;;;;10.80;5.00;;;26.80;85.20;;;;;;5095101;28;20051;-61
2023/07/10 03:32:19;;;;;;;10.60;4.82;;;26.70;85.00;;;;;;5096030;28;20035;-60
2023/07/10 03:34:45;;;;;;;11.10;5.32;;;26.60;84.90;;;;;;5095960;28;20504;-61
2023/07/10 03:37:10;;;;;;;10.65;5.55;;;26.70;84.90;;;;;;5094390;28;20048;-66
2023/07/10 03:39:36;;;;;;;10.23;5.07;;;26.70;85.00;;;;;;5094898;28;20052;-60
2023/07/10 03:42:02;;;;;;;14.82;4.93;;;26.80;84.80;;;;;;5095101;28;20040;-61
2023/07/10 03:44:28;;;;;;;12.05;5.15;;;26.80;84.90;;;;;;5093821;28;20131;-61
2023/07/10 03:46:56;;;;;;;8.95;4.90;;;26.70;84.90;;;;;;5094770;28;20549;-62
2023/07/10 03:49:24;;;;;;;9.23;5.15;;;26.60;84.60;;;;;;5081884;28;20047;-61
2023/07/10 03:51:50;;;;;;;9.93;4.85;;;26.70;85.20;;;;;;5094468;28;20362;-61
2023/07/10 03:54:16;;;;;;;9.55;5.25;;;26.30;84.70;;;;;;5094693;28;20051;-62
2023/07/10 03:56:42;;;;;;;10.65;5.00;;;26.70;85.10;;;;;;5093723;28;20044;-67
2023/07/10 03:59:08;;;;;;;10.82;4.75;;;26.70;85.00;;;;;;5093017;28;20423;-62
2023/07/10 04:01:34;;;;;;;8.07;4.63;;;26.80;85.10;;;;;;5074978;28;20148;-62
2023/07/10 04:04:00;;;;;;;8.15;5.00;;;26.50;84.90;;;;;;5093772;28;20476;-67
2023/07/10 04:06:26;;;;;;;11.40;5.25;;;26.60;85.00;;;;;;5092598;28;20051;-68
2023/07/10 04:08:51;;;;;;;10.40;5.28;;;26.40;84.80;;;;;;5094037;28;20505;-67
2023/07/10 04:11:21;;;;;;;9.27;4.82;;;26.90;85.30;;;;;;5093610;28;20071;-67
2023/07/10 04:13:48;;;;;;;10.23;5.15;;;26.50;85.20;;;;;;5093043;28;20078;-67
2023/07/10 04:16:19;;;;;;;9.85;4.60;;;26.60;85.20;;;;;;5075714;28;20501;-67
2023/07/10 04:18:45;;;;;;;10.35;4.88;;;26.60;85.50;;;;;;5084504;28;20074;-63
2023/07/10 04:21:20;;;;;;;10.80;4.78;;;26.50;85.20;;;;;;5083946;28;20045;-61
2023/07/10 04:23:46;;;;;;;9.40;4.78;;;26.60;85.50;;;;;;5091364;28;20568;-67
2023/07/10 04:26:20;;;;;;;10.23;4.93;;;26.50;84.90;;;;;;5093236;28;20052;-68
2023/07/10 04:28:47;;;;;;;8.18;4.60;;;26.50;83.80;;;;;;5092997;28;20055;-64
2023/07/10 04:31:13;;;;;;;10.38;4.70;;;26.60;85.30;;;;;;5074843;28;20090;-67
2023/07/10 04:33:38;;;;;;;8.93;5.00;;;26.40;84.80;;;;;;5074033;28;20079;-67
2023/07/10 04:36:04;;;;;;;10.40;5.05;;;26.70;85.10;;;;;;5084943;28;20044;-67
2023/07/10 04:38:30;;;;;;;8.15;4.68;;;26.50;84.70;;;;;;5091625;28;20378;-67
2023/07/10 04:41:01;;;;;;;8.70;5.10;;;26.50;84.60;;;;;;5088947;28;20052;-67
2023/07/10 04:43:28;;;;;;;8.10;4.82;;;26.70;85.40;;;;;;5093547;28;20109;-67
2023/07/10 04:45:54;;;;;;;8.55;4.57;;;26.50;85.10;;;;;;5091721;28;20048;-67
2023/07/10 04:48:21;;;;;;;9.75;5.18;;;26.40;84.80;;;;;;5092073;28;20074;-67
2023/07/10 04:50:48;;;;;;;8.63;4.68;;;26.50;85.00;;;;;;5092831;28;20113;-67
2023/07/10 04:53:14;;;;;;;9.90;5.20;;;26.80;84.90;;;;;;5091813;28;20114;-64
2023/07/10 04:55:40;;;;;;;8.82;4.63;;;26.50;84.80;;;;;;5089616;28;20035;-67
2023/07/10 04:58:06;;;;;;;10.48;4.72;;;26.50;84.60;;;;;;5085858;28;20154;-66
2023/07/10 05:00:33;;;;;;;10.57;5.13;;;26.70;84.80;;;;;;5091866;28;20127;-67
2023/07/10 05:02:59;;;;;;;8.27;4.18;;;26.40;84.70;;;;;;5091438;28;20165;-67
2023/07/10 05:05:24;;;;;;;8.25;4.50;;;26.40;84.60;;;;;;5091166;28;20118;-68
2023/07/10 05:07:50;;;;;;;7.82;4.50;;;26.40;84.70;;;;;;5092440;28;20549;-63
2023/07/10 05:10:16;;;;;;;10.02;4.47;;;26.50;84.60;;;;;;5090226;28;20032;-67
2023/07/10 05:12:42;;;;;;;11.60;4.47;;;26.60;84.60;;;;;;5088968;28;20386;-67
2023/07/10 05:15:08;;;;;;;10.63;4.50;;;26.50;84.70;;;;;;5091905;28;20066;-67
2023/07/10 05:17:34;;;;;;;10.90;4.65;;;26.70;84.30;;;;;;5092457;28;20035;-67
2023/07/10 05:20:00;;;;;;;10.05;4.15;;;26.40;85.20;;;;;;5091719;28;20496;-68
2023/07/10 05:22:26;;;;;;;9.65;4.18;;;26.30;84.70;;;;;;5092413;28;20032;-67
2023/07/10 05:24:52;;;;;;;8.90;4.63;;;26.70;84.90;;;;;;5092651;28;20054;-67
2023/07/10 05:27:18;;;;;;;9.02;4.68;;;26.60;84.60;;;;;;5091745;28;20590;-61
2023/07/10 05:29:43;;;;;;;9.43;4.32;;;26.50;84.60;;;;;;5092869;28;20047;-64
2023/07/10 05:32:09;;;;;;;10.65;4.88;;;26.70;84.90;;;;;;5102169;28;20082;-63
2023/07/10 05:34:36;;;;;;;7.90;4.30;;;26.50;84.30;;;;;;5107412;28;20044;-66
2023/07/10 05:37:02;;;;;;;7.45;4.25;;;26.50;84.30;;;;;;5091929;28;20044;-61
2023/07/10 05:39:30;;;;;;;8.93;4.30;;;26.60;84.60;;;;;;5092604;28;20055;-62
2023/07/10 05:41:57;;;;;;;11.93;4.45;;;26.60;84.70;;;;;;5092615;28;20102;-60
2023/07/10 05:44:23;;;;;;;10.20;4.30;;;26.50;84.90;;;;;;5092485;28;20048;-64
2023/07/10 05:46:49;;;;;;;6.78;4.10;;;26.40;84.20;;;;;;5088048;28;20051;-66
2023/07/10 05:49:15;;;;;;;7.80;3.75;;;26.50;84.40;;;;;;5070330;28;20545;-67
2023/07/10 05:51:41;;;;;;;7.55;4.07;;;26.70;84.70;;;;;;5092943;28;20390;-66
2023/07/10 05:54:07;;;;;;;10.32;4.43;;;26.50;84.30;;;;;;5092602;28;20048;-64
2023/07/10 05:56:32;;;;;;;7.43;3.95;;;26.40;84.40;;;;;;5091401;28;20478;-64
2023/07/10 05:58:58;;;;;;;7.95;3.50;;;26.60;84.60;;;;;;5091553;28;20047;-62
2023/07/10 06:01:24;;;;;;;7.88;4.15;;;26.80;84.80;;;;;;5090695;28;20469;-67
2023/07/10 06:03:50;;;;;;;7.55;3.60;;;26.50;84.20;;;;;;5086520;28;20487;-62
2023/07/10 06:06:16;;;;;;;6.93;3.58;;;26.70;84.60;;;;;;5087925;28;20044;-61
2023/07/10 06:08:41;;;;;;;8.82;3.50;;;26.60;84.40;;;;;;5090772;28;20433;-61
2023/07/10 06:11:08;;;;;;;6.82;3.40;;;26.50;84.30;;;;;;5090646;28;20051;-66
2023/07/10 06:13:34;;;;;;;7.40;3.50;;;26.70;84.40;;;;;;5091447;28;20109;-68
2023/07/10 06:16:00;;;;;;;7.63;3.38;;;26.70;84.50;;;;;;5093745;28;20952;-63
2023/07/10 06:18:26;;;;;;;6.75;3.50;;;26.50;84.30;;;;;;5096695;28;20044;-62
2023/07/10 06:20:52;;;;;;;6.00;2.83;;;26.40;84.10;;;;;;5089940;28;20041;-61
2023/07/10 06:23:18;;;;;;;6.43;3.45;;;26.80;84.60;;;;;;5092090;28;20488;-67
2023/07/10 06:25:44;;;;;;;7.15;3.53;;;26.60;84.50;;;;;;5095837;28;20134;-67
2023/07/10 06:28:11;;;;;;;5.38;3.20;;;26.80;84.30;;;;;;5077117;28;20139;-67
2023/07/10 06:30:45;;;;;;;7.97;3.45;;;26.90;84.60;;;;;;5096130;28;20044;-66
2023/07/10 06:33:11;;;;;;;7.63;3.53;;;26.90;84.80;;;;;;5093681;28;20109;-67
2023/07/10 06:35:37;;;;;;;7.57;3.40;;;26.80;84.10;;;;;;5094696;28;20044;-67
2023/07/10 06:38:03;;;;;;;6.72;3.40;;;26.60;83.90;;;;;;5088471;28;20060;-67
2023/07/10 06:40:28;;;;;;;6.70;2.92;;;26.70;83.70;;;;;;5092628;28;20040;-61
2023/07/10 06:42:54;;;;;;;7.88;2.92;;;26.80;84.00;;;;;;5093886;28;20404;-67
2023/07/10 06:45:20;;;;;;;7.63;3.38;;;26.70;83.90;;;;;;5095704;28;20043;-61
2023/07/10 06:47:46;;;;;;;6.57;3.17;;;27.00;84.10;;;;;;5092112;28;20051;-67
2023/07/10 06:50:13;;;;;;;5.72;2.80;;;26.80;83.90;;;;;;5093720;28;20048;-67
2023/07/10 06:52:40;;;;;;;7.10;2.88;;;26.80;84.20;;;;;;5095057;28;20047;-67
2023/07/10 06:55:07;;;;;;;6.35;3.17;;;26.90;84.20;;;;;;5089882;28;20055;-67
2023/07/10 06:57:34;;;;;;;6.07;2.80;;;26.90;83.80;;;;;;5095616;28;20516;-67
2023/07/10 06:59:59;;;;;;;6.65;2.95;;;26.90;84.10;;;;;;5095429;28;20416;-67
2023/07/10 07:02:26;;;;;;;5.38;2.85;;;26.90;83.80;;;;;;5095522;28;20054;-67
2023/07/10 07:04:52;;;;;;;10.20;3.38;;;26.90;83.90;;;;;;5094563;28;20044;-67
2023/07/10 07:07:17;;;;;;;7.07;2.97;;;27.00;83.80;;;;;;5095750;28;20130;-66
2023/07/10 07:09:43;;;;;;;7.90;3.65;;;27.10;83.80;;;;;;5095233;28;20528;-69
2023/07/10 07:12:10;;;;;;;8.65;3.60;;;26.80;83.60;;;;;;5088551;28;20093;-69
2023/07/10 07:14:36;;;;;;;6.40;2.90;;;26.70;83.40;;;;;;5082991;28;20040;-66
2023/07/10 07:17:03;;;;;;;6.85;3.20;;;26.90;83.60;;;;;;5095514;28;20040;-67
2023/07/10 07:19:29;;;;;;;7.18;3.35;;;26.90;83.70;;;;;;5078459;28;20072;-69
2023/07/10 07:21:55;;;;;;;7.47;3.00;;;26.80;83.50;;;;;;5094602;28;20083;-66
2023/07/10 07:24:21;;;;;;;7.15;3.40;;;26.70;83.50;;;;;;5093935;28;20085;-66
2023/07/10 07:26:47;;;;;;;9.13;3.17;;;27.10;83.70;;;;;;5093320;28;20040;-69
2023/07/10 07:29:12;;;;;;;7.38;3.17;;;27.10;83.60;;;;;;5087191;28;20115;-70
2023/07/10 07:31:39;;;;;;;7.43;3.35;;;26.80;83.20;;;;;;5086933;28;20048;-69
2023/07/10 07:34:05;;;;;;;9.90;3.30;;;27.00;83.30;;;;;;5092321;28;20401;-67
2023/07/10 07:36:34;;;;;;;10.35;4.22;;;27.10;83.50;;;;;;5093153;28;20507;-66
2023/07/10 07:39:04;;;;;;;11.07;3.75;;;27.40;83.70;;;;;;5089554;28;20524;-66
2023/07/10 07:41:31;;;;;;;7.07;3.65;;;26.90;82.00;;;;;;5094766;28;20122;-69
2023/07/10 07:43:58;;;;;;;8.60;3.38;;;27.00;83.40;;;;;;5095182;28;20083;-66
2023/07/10 07:46:24;;;;;;;7.90;3.40;;;27.00;83.40;;;;;;5084829;28;20071;-67
2023/07/10 07:48:50;;;;;;;8.30;3.50;;;26.90;82.90;;;;;;5076434;28;20486;-67
2023/07/10 07:51:16;;;;;;;7.20;3.65;;;27.30;83.20;;;;;;5094558;28;20043;-67
2023/07/10 07:53:42;;;;;;;9.88;3.60;;;27.30;83.10;;;;;;5094365;28;20079;-66
2023/07/10 07:56:08;;;;;;;9.60;3.50;;;27.50;83.20;;;;;;5092474;28;20093;-67
2023/07/10 07:58:34;;;;;;;7.75;3.30;;;27.10;82.80;;;;;;5094202;28;20093;-69
2023/07/10 08:01:00;;;;;;;10.57;3.50;;;27.20;82.50;;;;;;5094368;28;20044;-68
2023/07/10 08:03:26;;;;;;;9.18;3.90;;;27.50;82.80;;;;;;5067192;28;20044;-69
2023/07/10 08:05:52;;;;;;;9.30;3.28;;;27.40;82.90;;;;;;5057796;28;20117;-69
2023/07/10 08:08:18;;;;;;;10.38;3.30;;;27.40;82.50;;;;;;5079277;28;20060;-69
2023/07/10 08:10:46;;;;;;;9.38;3.67;;;27.20;81.90;;;;;;5091960;28;20036;-67
2023/07/10 08:13:12;;;;;;;7.47;3.22;;;27.50;82.10;;;;;;5092883;28;20071;-69
2023/07/10 08:15:38;;;;;;;10.65;3.65;;;27.60;81.70;;;;;;5110166;28;20044;-67
2023/07/10 08:18:04;;;;;;;11.10;3.05;;;27.20;81.60;;;;;;5096120;28;20043;-68
2023/07/10 08:20:30;;;;;;;11.63;3.35;;;27.50;81.30;;;;;;5093232;28;20119;-70
2023/07/10 08:22:56;;;;;;;8.82;3.40;;;27.60;81.40;;;;;;5092300;28;20040;-67
2023/07/10 08:25:22;;;;;;;6.40;2.70;;;27.50;81.20;;;;;;5093122;28;20546;-67
2023/07/10 08:27:47;;;;;;;9.32;3.10;;;27.40;80.90;;;;;;5094198;28;20398;-68
2023/07/10 08:30:14;;;;;;;8.23;2.80;;;27.70;80.80;;;;;;5093806;28;20571;-68
2023/07/10 08:32:40;;;;;;;8.45;2.83;;;27.40;81.20;;;;;;5094052;28;20044;-70
2023/07/10 08:35:09;;;;;;;10.80;3.13;;;27.60;80.80;;;;;;5092140;28;20142;-69
2023/07/10 08:37:37;;;;;;;8.48;2.92;;;27.70;79.70;;;;;;5091869;28;20371;-65
2023/07/10 08:40:04;;;;;;;9.85;3.30;;;27.90;79.90;;;;;;5093441;28;20109;-61
2023/07/10 08:42:31;;;;;;;9.27;2.78;;;27.70;79.90;;;;;;5093583;28;20048;-61
2023/07/10 08:44:56;;;;;;;7.65;2.63;;;27.70;79.90;;;;;;5093784;28;20040;-69
2023/07/10 08:47:24;;;;;;;7.45;2.70;;;27.80;80.00;;;;;;5074137;28;20130;-62
2023/07/10 08:50:32;;;;;;;10.40;3.00;;;28.00;80.40;;;;;;5074425;28;20052;-61
2023/07/10 08:53:10;;;;;;;6.60;2.40;;;27.90;78.50;;;;;;4990888;28;20054;-63
2023/07/10 08:55:41;;;;;;;7.80;2.58;;;27.80;79.70;;;;;;4990210;28;20046;-63
2023/07/10 08:58:07;;;;;;;8.25;2.67;;;27.90;78.00;;;;;;4989401;28;20109;-69
2023/07/10 09:00:37;;;;;;;9.38;3.00;;;28.10;79.50;;;;;;4974432;28;20043;-68
2023/07/10 09:03:31;;;;;;;8.27;2.80;;;28.10;78.80;;;;;;4988021;28;20046;-63
2023/07/10 09:05:57;;;;;;;9.63;3.20;;;28.10;77.20;;;;;;4989047;28;20389;-61
2023/07/10 09:08:23;;;;;;;6.60;2.80;;;28.20;78.40;;;;;;4981054;28;20773;-64
2023/07/10 09:10:51;;;;;;;7.85;2.50;;;27.90;78.10;;;;;;4989962;28;20070;-67
2023/07/10 09:13:19;;;;;;;8.55;2.97;;;28.30;79.10;;;;;;4994887;28;20044;-64
2023/07/10 09:15:53;;;;;;;10.90;3.30;;;28.10;79.00;;;;;;4983048;28;20162;-63
2023/07/10 09:18:40;;;;;;;11.82;3.42;;;28.30;77.60;;;;;;4955856;28;20050;-60
2023/07/10 09:21:34;;;;;;;14.52;8.50;;;28.00;78.90;;;;;;4984685;28;20046;-62
2023/07/10 09:24:01;;;;;;;10.35;5.50;;;28.00;78.30;;;;;;4973131;28;20404;-63
2023/07/10 09:26:29;;;;;;;9.70;5.10;;;28.00;78.30;;;;;;4991270;28;20043;-65
2023/07/10 09:29:09;;;;;;;12.40;4.72;;;28.00;78.20;;;;;;5022942;28;20492;-61
2023/07/10 09:31:44;;;;;;;26.58;5.97;;;28.00;76.70;;;;;;5074791;28;20063;-61
2023/07/10 09:34:10;;;;;;;13.00;4.10;;;28.10;76.90;;;;;;5092689;28;20531;-69
2023/07/10 09:36:36;;;;;;;9.40;3.53;;;27.80;77.80;;;;;;5092708;28;20058;-60
2023/07/10 09:39:02;;;;;;;10.73;3.67;;;27.80;77.70;;;;;;5074232;28;20127;-61
2023/07/10 09:41:28;;;;;;;13.68;3.58;;;28.00;78.00;;;;;;5074354;28;20101;-62
2023/07/10 09:43:54;;;;;;;6.13;2.78;;;27.90;77.50;;;;;;5092908;28;20048;-63
2023/07/10 09:46:38;;;;;;;10.00;2.75;;;27.80;77.30;;;;;;5084618;28;20040;-67
2023/07/10 09:49:11;;;;;;;8.23;2.78;;;28.10;77.50;;;;;;5090575;28;20470;-60
2023/07/10 09:51:37;;;;;;;12.95;3.30;;;27.90;77.40;;;;;;5092295;28;20052;-63
2023/07/10 09:54:06;;;;;;;8.52;3.03;;;27.70;76.60;;;;;;5090469;28;20047;-67
2023/07/10 09:56:36;;;;;;;7.40;2.60;;;27.80;76.70;;;;;;5074948;28;20104;-66
2023/07/10 09:59:10;;;;;;;8.00;3.28;;;28.00;77.20;;;;;;5090725;28;20152;-66
2023/07/10 10:01:37;;;;;;;6.40;2.42;;;28.00;77.10;;;;;;5071300;28;20048;-67
2023/07/10 10:04:03;;;;;;;8.07;2.70;;;28.20;77.00;;;;;;5074170;28;20100;-67
2023/07/10 10:06:30;;;;;;;6.90;2.60;;;28.00;76.70;;;;;;5073475;28;20546;-67
2023/07/10 10:08:56;;;;;;;7.55;2.60;;;28.20;77.00;;;;;;5081470;28;20054;-66
2023/07/10 10:11:50;;;;;;;7.20;2.75;;;28.10;76.70;;;;;;5092253;28;20044;-67
2023/07/10 10:14:27;;;;;;;6.00;2.47;;;28.10;77.00;;;;;;5091815;28;20528;-63
2023/07/10 10:17:00;;;;;;;6.95;2.42;;;28.10;77.00;;;;;;5075170;28;20055;-67
2023/07/10 10:19:34;;;;;;;6.80;2.60;;;28.20;75.80;;;;;;5065596;28;20048;-67
2023/07/10 10:21:59;;;;;;;7.55;2.83;;;28.30;77.20;;;;;;5072074;28;20052;-62
2023/07/10 10:24:26;;;;;;;7.32;2.40;;;28.00;76.40;;;;;;5088959;28;20040;-66
2023/07/10 10:27:13;;;;;;;7.97;2.75;;;28.10;76.80;;;;;;5073957;28;20418;-66
2023/07/10 10:30:12;;;;;;;8.27;2.90;;;27.90;75.30;;;;;;5089305;28;20410;-61
2023/07/10 10:33:01;;;;;;;7.43;2.60;;;28.10;75.20;;;;;;5077482;28;20060;-66
2023/07/10 10:35:33;;;;;;;8.10;2.63;;;28.20;77.10;;;;;;5069211;28;20051;-67
2023/07/10 10:38:27;;;;;;;9.00;3.30;;;28.30;75.30;;;;;;5076171;28;20043;-61
2023/07/10 10:41:16;;;;;;;6.85;2.70;;;28.10;75.50;;;;;;5090306;28;20132;-67
2023/07/10 10:44:05;;;;;;;8.40;2.42;;;28.30;76.60;;;;;;5079633;28;20417;-68
2023/07/10 10:46:46;;;;;;;8.55;2.80;;;28.20;74.90;;;;;;5076219;28;20040;-67
2023/07/10 10:49:26;;;;;;;9.05;2.60;;;28.30;74.90;;;;;;5090005;28;20497;-67
2023/07/10 10:52:20;;;;;;;8.18;2.35;;;28.30;75.30;;;;;;5076574;28;20051;-67
2023/07/10 10:55:04;;;;;;;9.38;2.45;;;28.30;75.80;;;;;;5085585;28;20086;-66
2023/07/10 10:57:30;;;;;;;12.60;3.83;;;28.10;76.30;;;;;;5090347;28;20062;-69
2023/07/10 11:00:01;;;;;;;9.27;3.92;;;28.10;75.90;;;;;;5089468;28;20123;-65
2023/07/10 11:02:38;;;;;;;8.88;3.70;;;28.00;74.60;;;;;;5092414;28;20044;-67
2023/07/10 11:05:17;;;;;;;9.25;3.30;;;28.30;75.20;;;;;;5092340;28;20059;-67
2023/07/10 11:07:44;;;;;;;6.80;2.72;;;28.30;75.40;;;;;;5074696;28;20052;-67
2023/07/10 11:10:16;;;;;;;7.00;2.70;;;28.40;76.80;;;;;;5067174;28;20428;-70
2023/07/10 11:12:42;;;;;;;;;;;28.10;76.70;;;;;;5094686;28;20040;-61
2023/07/10 11:15:18;;;;;;;10.55;3.85;;;28.40;76.20;;;;;;5091405;28;19952;-66
2023/07/10 11:17:47;;;;;;;9.35;4.40;;;28.40;76.10;;;;;;5077071;28;20036;-67
2023/07/10 11:20:14;;;;;;;11.50;4.30;;;28.30;75.60;;;;;;5058844;28;20571;-67
2023/07/10 11:22:51;;;;;;;9.80;4.53;;;28.40;75.40;;;;;;5077985;28;20117;-65
2023/07/10 11:25:39;;;;;;;8.23;3.45;;;28.30;73.70;;;;;;5076821;28;20044;-61
2023/07/10 11:28:26;;;;;;;8.70;3.60;;;28.20;75.70;;;;;;5063909;28;20042;-64
2023/07/10 11:31:31;;;;;;;9.77;3.20;;;28.10;75.80;;;;;;5092617;28;20502;-65
2023/07/10 11:34:33;;;;;;;9.38;3.40;;;28.10;74.40;;;;;;5079031;28;20563;-64
2023/07/10 11:36:59;;;;;;;6.85;3.28;;;28.10;76.00;;;;;;5078848;28;20436;-63
2023/07/10 11:39:36;;;;;;;10.93;2.80;;;28.10;75.50;;;;;;5061385;28;20102;-61
2023/07/10 11:42:02;;;;;;;7.32;2.80;;;28.30;74.80;;;;;;5072188;28;20040;-66
2023/07/10 11:44:28;;;;;;;7.80;3.13;;;28.40;75.90;;;;;;5086506;28;20036;-67
2023/07/10 11:47:00;;;;;;;18.45;4.30;;;28.60;76.00;;;;;;5089980;28;20490;-66
2023/07/10 11:49:35;;;;;;;11.55;3.78;;;28.50;75.00;;;;;;5094528;28;20046;-67
2023/07/10 11:52:13;;;;;;;11.00;3.30;;;28.40;75.60;;;;;;5089122;28;20134;-66
2023/07/10 11:54:43;;;;;;;8.88;3.45;;;28.40;75.50;;;;;;5092888;28;20131;-68
2023/07/10 11:57:09;;;;;;;9.80;3.80;;;28.40;75.30;;;;;;5093133;28;20393;-67
2023/07/10 11:59:53;;;;;;;8.77;4.07;;;28.70;75.00;;;;;;5093578;28;20044;-66
2023/07/10 12:02:44;;;;;;;10.18;4.32;;;28.50;73.60;;;;;;5090928;28;20461;-67
2023/07/10 12:05:36;;;;;;;9.07;2.95;;;28.70;73.80;;;;;;5090345;28;20052;-66
2023/07/10 12:08:02;;;;;;;9.05;3.15;;;28.10;73.30;;;;;;5090755;28;20130;-67
2023/07/10 12:10:30;;;;;;;8.50;3.10;;;28.40;74.00;;;;;;5093177;28;20127;-67
2023/07/10 12:12:56;;;;;;;8.20;2.95;;;28.40;74.10;;;;;;5092675;28;20505;-67
2023/07/10 12:15:22;;;;;;;9.18;2.97;;;28.40;73.90;;;;;;5091514;28;20403;-67
2023/07/10 12:17:48;;;;;;;7.63;2.80;;;28.50;73.50;;;;;;5070672;28;20067;-67
2023/07/10 12:20:25;;;;;;;10.30;3.25;;;28.60;73.20;;;;;;5072425;28;20102;-67
2023/07/10 12:22:55;;;;;;;8.90;3.30;;;28.50;71.50;;;;;;5082970;28;20512;-66
2023/07/10 12:25:21;;;;;;;10.68;2.90;;;28.40;73.00;;;;;;5092545;28;20096;-68
2023/07/10 12:27:47;;;;;;;7.70;2.70;;;28.30;72.60;;;;;;5062275;28;20044;-68
2023/07/10 12:30:16;;;;;;;9.85;3.17;;;28.60;72.60;;;;;;5093205;28;20040;-60
2023/07/10 12:32:42;;;;;;;7.93;2.65;;;28.60;71.60;;;;;;5088104;28;20078;-64
2023/07/10 12:35:31;;;;;;;8.02;2.70;;;28.40;72.80;;;;;;5086459;28;20482;-67
2023/07/10 12:37:59;;;;;;;8.57;2.50;;;28.30;71.70;;;;;;5087384;28;20047;-66
2023/07/10 12:40:25;;;;;;;6.38;2.17;;;28.20;73.10;;;;;;5073527;28;20123;-66
2023/07/10 12:42:51;;;;;;;8.40;2.33;;;28.20;73.10;;;;;;5075299;28;20048;-68
2023/07/10 12:45:32;;;;;;;5.45;2.10;;;28.30;73.10;;;;;;5089549;28;20070;-68
2023/07/10 12:48:16;;;;;;;7.10;2.70;;;28.30;73.60;;;;;;5073788;28;20040;-67
2023/07/10 12:50:46;;;;;;;7.78;2.63;;;28.20;73.50;;;;;;5074889;28;20036;-67
2023/07/10 12:53:20;;;;;;;6.75;2.60;;;28.20;72.20;;;;;;5071373;28;20127;-67
2023/07/10 12:55:47;;;;;;;6.72;2.63;;;27.90;73.90;;;;;;5088795;28;20110;-66